createdAt,value
2022-08-04T00:02:08.287Z,99201.40
2022-08-04T00:04:52.092Z,99204.40
2022-08-04T00:07:55.880Z,99204.40
2022-08-04T00:10:27.061Z,99199.40
2022-08-04T00:12:58.343Z,99198.20
2022-08-04T00:15:28.887Z,99204.80
2022-08-04T00:18:09.342Z,99206.00
2022-08-04T00:20:43.048Z,99208.80
2022-08-04T00:23:11.541Z,99206.20
2022-08-04T00:25:41.516Z,99211.00
2022-08-04T00:28:09.395Z,99206.80
2022-08-04T00:30:38.051Z,99208.80
2022-08-04T00:33:07.357Z,99210.40
2022-08-04T00:35:38.419Z,99212.60
2022-08-04T00:38:06.533Z,99211.20
2022-08-04T00:41:08.957Z,99211.80
2022-08-04T00:44:23.714Z,99215.80
2022-08-04T00:47:08.056Z,99212.80
2022-08-04T00:50:03.585Z,99217.20
2022-08-04T00:52:43.060Z,99217.60
2022-08-04T00:55:27.903Z,99209.20
2022-08-04T00:58:27.811Z,99211.80
2022-08-04T01:01:06.755Z,99209.00
2022-08-04T01:04:02.571Z,99211.40
2022-08-04T01:06:56.425Z,99207.20
2022-08-04T01:09:48.769Z,99211.20
2022-08-04T01:12:34.384Z,99210.60
2022-08-04T01:15:57.117Z,99211.60
2022-08-04T01:18:42.561Z,99213.40
2022-08-04T01:21:30.685Z,99215.40
2022-08-04T01:24:56.761Z,99219.80
2022-08-04T01:27:55.041Z,99218.20
2022-08-04T01:30:27.657Z,99220.20
2022-08-04T01:33:05.185Z,99214.00
2022-08-04T01:35:50.999Z,99213.20
2022-08-04T01:38:37.026Z,99211.00
2022-08-04T01:41:12.709Z,99210.80
2022-08-04T01:43:46.370Z,99210.60
2022-08-04T01:46:17.617Z,99212.40
2022-08-04T01:48:47.935Z,99210.80
2022-08-04T01:51:15.525Z,99211.80
2022-08-04T01:53:44.909Z,99218.40
2022-08-04T01:56:13.246Z,99214.20
2022-08-04T01:58:41.824Z,99216.20
2022-08-04T02:01:13.739Z,99216.20
2022-08-04T02:04:20.114Z,99215.60
2022-08-04T02:07:22.354Z,99213.80
2022-08-04T02:10:28.820Z,99213.20
2022-08-04T02:13:10.928Z,99205.40
2022-08-04T02:15:56.870Z,99207.40
2022-08-04T02:18:47.472Z,99211.00
2022-08-04T02:21:20.351Z,99210.80
2022-08-04T02:24:06.821Z,99209.60
2022-08-04T02:26:37.032Z,99206.80
2022-08-04T02:29:20.380Z,99203.80
2022-08-04T02:32:03.933Z,99206.40
2022-08-04T02:34:59.339Z,99199.60
2022-08-04T02:37:31.452Z,99198.60
2022-08-04T02:40:06.305Z,99191.20
2022-08-04T02:42:35.530Z,99192.60
2022-08-04T02:45:06.742Z,99196.20
2022-08-04T02:48:30.522Z,99192.40
2022-08-04T02:50:29.163Z,99194.60
2022-08-04T02:53:02.985Z,99195.60
2022-08-04T02:55:32.960Z,99194.20
2022-08-04T02:58:04.697Z,99191.00
2022-08-04T03:00:33.057Z,99192.80
2022-08-04T03:03:31.344Z,99189.20
2022-08-04T03:06:12.051Z,99187.60
2022-08-04T03:09:25.328Z,99189.40
2022-08-04T03:12:17.176Z,99190.60
2022-08-04T03:15:06.470Z,99189.40
2022-08-04T03:18:18.653Z,99194.20
2022-08-04T03:21:22.806Z,99192.00
2022-08-04T03:24:09.049Z,99200.40
2022-08-04T03:27:14.744Z,99194.60
2022-08-04T03:30:07.142Z,99194.80
2022-08-04T03:33:14.789Z,99196.60
2022-08-04T03:36:48.583Z,99200.00
2022-08-04T03:39:44.028Z,99199.00
2022-08-04T03:42:20.513Z,99202.00
2022-08-04T03:45:55.896Z,99207.00
2022-08-04T03:48:53.248Z,99208.20
2022-08-04T03:52:20.919Z,99211.00
2022-08-04T03:55:26.292Z,99209.20
2022-08-04T03:58:08.904Z,99205.80
2022-08-04T04:00:51.533Z,99208.20
2022-08-04T04:04:26.232Z,99212.20
2022-08-04T04:07:55.889Z,99216.80
2022-08-04T04:10:47.471Z,99210.80
2022-08-04T04:14:06.156Z,99210.00
2022-08-04T04:17:29.965Z,99211.60
2022-08-04T04:20:38.833Z,99217.00
2022-08-04T04:23:54.966Z,99215.60
2022-08-04T04:26:54.774Z,99214.80
2022-08-04T04:29:55.112Z,99218.60
2022-08-04T04:32:53.676Z,99217.40
2022-08-04T04:35:40.856Z,99215.80
2022-08-04T04:38:49.121Z,99217.60
2022-08-04T04:41:42.557Z,99214.60
2022-08-04T04:44:30.736Z,99210.60
2022-08-04T04:48:08.329Z,99214.20
2022-08-04T04:50:52.996Z,99222.00
2022-08-04T04:54:06.566Z,99223.40
2022-08-04T04:56:45.562Z,99220.60
2022-08-04T04:59:23.488Z,99219.00
2022-08-04T05:02:03.049Z,99217.40
2022-08-04T05:05:04.221Z,99218.60
2022-08-04T05:08:44.251Z,99217.80
2022-08-04T05:11:52.310Z,99215.80
2022-08-04T05:14:41.792Z,99214.40
2022-08-04T05:17:22.452Z,99213.60
2022-08-04T05:20:15.021Z,99206.80
2022-08-04T05:22:55.035Z,99208.40
2022-08-04T05:25:35.695Z,99211.60
2022-08-04T05:28:12.789Z,99209.80
2022-08-04T05:30:49.094Z,99213.40
2022-08-04T05:33:32.719Z,99209.60
2022-08-04T05:36:18.808Z,99213.60
2022-08-04T05:38:57.285Z,99213.00
2022-08-04T05:41:44.704Z,99211.60
2022-08-04T05:44:17.908Z,99213.80
2022-08-04T05:46:55.137Z,99214.60
2022-08-04T05:49:29.035Z,99215.00
2022-08-04T05:52:02.457Z,99211.20
2022-08-04T05:54:35.864Z,99216.80
2022-08-04T05:57:06.101Z,99215.60
2022-08-04T05:59:37.986Z,99213.80
2022-08-04T06:02:08.352Z,99209.80
2022-08-04T06:04:41.246Z,99215.00
2022-08-04T06:07:11.281Z,99215.80
2022-08-04T06:09:39.312Z,99216.80
2022-08-04T06:12:14.063Z,99217.40
2022-08-04T06:14:48.750Z,99213.20
2022-08-04T06:18:35.647Z,99213.20
2022-08-04T06:20:23.210Z,99215.20
2022-08-04T06:22:58.700Z,99212.20
2022-08-04T06:25:33.123Z,99207.80
2022-08-04T06:28:05.312Z,99212.60
2022-08-04T06:30:35.608Z,99211.00
2022-08-04T06:33:13.891Z,99214.00
2022-08-04T06:35:42.588Z,99205.40
2022-08-04T06:38:11.525Z,99211.60
2022-08-04T06:40:41.598Z,99212.60
2022-08-04T06:43:10.233Z,99213.60
2022-08-04T06:45:41.379Z,99209.60
2022-08-04T06:48:13.262Z,99203.20
2022-08-04T06:51:29.250Z,99198.40
2022-08-04T06:53:34.985Z,99201.80
2022-08-04T06:56:04.194Z,99203.80
2022-08-04T06:58:33.636Z,99199.40
2022-08-04T07:01:03.158Z,99196.60
2022-08-04T07:03:32.645Z,99201.40
2022-08-04T07:06:05.577Z,99196.60
2022-08-04T07:08:36.270Z,99200.20
2022-08-04T07:11:05.806Z,99202.60
2022-08-04T07:13:33.864Z,99200.60
2022-08-04T07:16:02.551Z,99205.80
2022-08-04T07:18:32.122Z,99207.20
2022-08-04T07:21:00.524Z,99206.20
2022-08-04T07:23:28.405Z,99200.00
2022-08-04T07:26:11.175Z,99199.80
2022-08-04T07:28:41.882Z,99197.20
2022-08-04T07:31:32.036Z,99200.60
2022-08-04T07:34:11.604Z,99200.40
2022-08-04T07:36:50.208Z,99197.20
2022-08-04T07:39:27.210Z,99194.20
2022-08-04T07:42:01.767Z,99192.40
2022-08-04T07:44:34.906Z,99190.20
2022-08-04T07:47:07.209Z,99192.60
2022-08-04T07:49:52.230Z,99193.00
2022-08-04T07:52:24.989Z,99184.20
2022-08-04T07:54:54.028Z,99187.60
2022-08-04T07:57:40.983Z,99183.20
2022-08-04T08:00:16.679Z,99179.20
2022-08-04T08:02:49.589Z,99176.20
2022-08-04T08:05:20.519Z,99172.60
2022-08-04T08:07:54.460Z,99169.80
2022-08-04T08:10:24.688Z,99168.40
2022-08-04T08:12:53.773Z,99173.00
2022-08-04T08:15:22.597Z,99173.60
2022-08-04T08:17:57.789Z,99167.60
2022-08-04T08:20:30.553Z,99167.00
2022-08-04T08:23:01.206Z,99169.60
2022-08-04T08:25:32.462Z,99175.40
2022-08-04T08:28:03.559Z,99176.40
2022-08-04T08:30:33.991Z,99172.00
2022-08-04T08:33:06.387Z,99174.00
2022-08-04T08:36:18.458Z,99173.20
2022-08-04T08:39:34.945Z,99178.40
2022-08-04T08:42:30.008Z,99177.20
2022-08-04T08:45:25.584Z,99178.80
2022-08-04T08:48:30.558Z,99176.40
2022-08-04T08:51:28.585Z,99172.40
2022-08-04T08:54:30.176Z,99178.60
2022-08-04T08:57:31.806Z,99178.00
2022-08-04T09:00:38.165Z,99182.00
2022-08-04T09:03:36.855Z,99180.80
2022-08-04T09:06:37.478Z,99177.40
2022-08-04T09:09:32.652Z,99188.00
2022-08-04T09:12:25.634Z,99184.40
2022-08-04T09:14:56.302Z,99184.20
2022-08-04T09:17:41.044Z,99178.20
2022-08-04T09:21:12.774Z,99181.20
2022-08-04T09:24:00.394Z,99179.00
2022-08-04T09:26:40.864Z,99170.40
2022-08-04T09:29:33.891Z,99176.80
2022-08-04T09:32:32.913Z,99181.60
2022-08-04T09:35:15.158Z,99170.60
2022-08-04T09:37:59.376Z,99170.60
2022-08-04T09:40:59.116Z,99169.40
2022-08-04T09:44:49.310Z,99167.00
2022-08-04T09:47:39.178Z,99167.20
2022-08-04T09:50:19.733Z,99170.40
2022-08-04T09:53:29.794Z,99171.80
2022-08-04T09:56:39.561Z,99168.00
2022-08-04T09:59:22.170Z,99166.00
2022-08-04T10:02:00.024Z,99166.20
2022-08-04T10:04:31.836Z,99163.60
2022-08-04T10:07:39.084Z,99161.20
2022-08-04T10:10:28.761Z,99163.40
2022-08-04T10:13:21.692Z,99160.40
2022-08-04T10:16:24.794Z,99157.20
2022-08-04T10:19:20.721Z,99162.40
2022-08-04T10:22:29.962Z,99159.40
2022-08-04T10:26:03.068Z,99162.60
2022-08-04T10:28:21.567Z,99155.40
2022-08-04T10:31:03.222Z,99152.20
2022-08-04T10:33:57.549Z,99155.80
2022-08-04T10:36:38.235Z,99154.00
2022-08-04T10:39:43.322Z,99152.20
2022-08-04T10:42:20.888Z,99147.60
2022-08-04T10:45:49.047Z,99146.80
2022-08-04T10:48:56.358Z,99152.00
2022-08-04T10:51:57.698Z,99150.80
2022-08-04T10:54:47.485Z,99146.20
2022-08-04T10:57:34.077Z,99149.00
2022-08-04T11:00:10.510Z,99141.20
2022-08-04T11:02:54.598Z,99148.40
2022-08-04T11:05:46.548Z,99143.00
2022-08-04T11:08:44.560Z,99142.20
2022-08-04T11:11:19.922Z,99138.40
2022-08-04T11:14:03.525Z,99134.80
2022-08-04T11:16:54.911Z,99140.00
2022-08-04T11:19:54.631Z,99136.40
2022-08-04T11:22:29.286Z,99139.40
2022-08-04T11:25:09.625Z,99139.80
2022-08-04T11:28:19.339Z,99133.80
2022-08-04T11:31:11.751Z,99136.20
2022-08-04T11:34:01.220Z,99138.40
2022-08-04T11:36:50.960Z,99133.40
2022-08-04T11:39:30.156Z,99141.00
2022-08-04T11:42:14.707Z,99138.20
2022-08-04T11:45:08.079Z,99140.00
2022-08-04T11:47:41.676Z,99136.00
2022-08-04T11:50:28.876Z,99129.60
2022-08-04T11:52:59.585Z,99132.20
2022-08-04T11:55:30.402Z,99127.60
2022-08-04T11:57:58.989Z,99128.60
2022-08-04T12:00:31.204Z,99121.20
2022-08-04T12:03:25.387Z,99122.80
2022-08-04T12:06:13.477Z,99117.80
2022-08-04T12:09:13.002Z,99115.60
2022-08-04T12:11:56.423Z,99117.80
2022-08-04T12:14:51.570Z,99116.20
2022-08-04T12:17:52.733Z,99117.80
2022-08-04T12:20:38.256Z,99111.40
2022-08-04T12:23:29.797Z,99111.60
2022-08-04T12:26:05.333Z,99102.40
2022-08-04T12:29:08.612Z,99113.20
2022-08-04T12:31:47.305Z,99111.40
2022-08-04T12:34:32.598Z,99110.40
2022-08-04T12:37:20.565Z,99102.40
2022-08-04T12:40:21.667Z,99101.40
2022-08-04T12:43:10.454Z,99096.60
2022-08-04T12:45:48.978Z,99089.20
2022-08-04T12:48:21.585Z,99088.40
2022-08-04T12:50:55.617Z,99089.40
2022-08-04T12:53:50.880Z,99082.40
2022-08-04T12:56:27.976Z,99078.80
2022-08-04T12:59:06.410Z,99079.60
2022-08-04T13:02:10.815Z,99082.20
2022-08-04T13:04:42.502Z,99081.00
2022-08-04T13:07:18.575Z,99075.60
2022-08-04T13:09:47.804Z,99076.00
2022-08-04T13:12:23.874Z,99078.60
2022-08-04T13:15:10.851Z,99075.80
2022-08-04T13:18:15.103Z,99072.60
2022-08-04T13:20:44.797Z,99073.20
2022-08-04T13:23:21.526Z,99076.60
2022-08-04T13:26:44.159Z,99073.40
2022-08-04T13:28:47.097Z,99073.20
2022-08-04T13:31:20.021Z,99070.40
2022-08-04T13:33:52.084Z,99073.00
2022-08-04T13:36:26.267Z,99066.80
2022-08-04T13:39:02.464Z,99068.60
2022-08-04T13:41:31.491Z,99066.80
2022-08-04T13:44:19.311Z,99074.40
2022-08-04T13:46:55.750Z,99061.60
2022-08-04T13:49:37.569Z,99064.60
2022-08-04T13:52:11.501Z,99061.20
2022-08-04T13:54:46.952Z,99055.00
2022-08-04T13:57:31.641Z,99053.40
2022-08-04T14:00:09.137Z,99049.40
2022-08-04T14:02:46.690Z,99049.60
2022-08-04T14:05:26.991Z,99046.40
2022-08-04T14:08:05.539Z,99052.60
2022-08-04T14:10:35.821Z,99042.80
2022-08-04T14:13:06.324Z,99050.80
2022-08-04T14:16:01.133Z,99056.80
2022-08-04T14:18:33.870Z,99053.40
2022-08-04T14:21:17.726Z,99050.80
2022-08-04T14:23:58.018Z,99052.40
2022-08-04T14:26:33.833Z,99051.20
2022-08-04T14:29:26.402Z,99044.60
2022-08-04T14:32:12.784Z,99038.00
2022-08-04T14:34:46.228Z,99036.00
2022-08-04T14:37:20.379Z,99043.80
2022-08-04T14:40:19.329Z,99041.20
2022-08-04T14:42:54.516Z,99035.00
2022-08-04T14:45:37.189Z,99026.20
2022-08-04T15:50:28.167Z,99021.60
2022-08-04T15:52:57.263Z,99017.00
2022-08-04T15:55:40.761Z,99014.20
2022-08-04T15:58:13.781Z,99015.40
2022-08-04T16:00:50.750Z,99012.80
2022-08-04T16:03:58.830Z,99012.80
2022-08-04T16:06:22.215Z,99012.80
2022-08-04T16:08:57.242Z,99012.20
2022-08-04T16:11:30.947Z,99013.00
2022-08-04T16:13:59.683Z,99016.60
2022-08-04T16:16:49.247Z,99019.00
2022-08-04T16:19:51.776Z,99016.60
2022-08-04T16:22:35.047Z,99017.00
2022-08-04T16:25:03.094Z,99016.00
2022-08-04T16:27:44.381Z,99021.40
2022-08-04T16:30:15.092Z,99018.20
2022-08-04T16:32:46.188Z,99025.40
2022-08-04T16:35:28.614Z,99023.00
2022-08-04T16:38:14.928Z,99022.40
2022-08-04T16:40:46.307Z,99021.40
2022-08-04T16:43:20.841Z,99019.20
2022-08-04T16:46:01.125Z,99025.00
2022-08-04T16:48:34.925Z,99021.20
2022-08-04T16:51:14.545Z,99022.60
2022-08-04T16:53:53.539Z,99018.00
2022-08-04T16:56:35.585Z,99017.80
2022-08-04T16:59:09.457Z,99015.20
2022-08-04T17:01:48.199Z,99013.00
2022-08-04T17:04:17.320Z,99008.80
2022-08-04T17:06:46.762Z,99016.40
2022-08-04T17:09:18.273Z,99016.60
2022-08-04T17:11:48.401Z,99017.00
2022-08-04T17:14:27.634Z,99014.40
2022-08-04T17:17:00.618Z,99019.80
2022-08-04T17:19:28.702Z,99015.60
2022-08-04T17:22:10.913Z,99017.20
2022-08-04T17:24:40.943Z,99017.60
2022-08-04T17:28:09.789Z,99017.20
2022-08-04T17:29:59.110Z,99018.60
2022-08-04T17:32:27.214Z,99020.60
2022-08-04T17:35:00.329Z,99016.20
2022-08-04T17:37:37.781Z,99016.20
2022-08-04T17:40:18.559Z,99015.60
2022-08-04T17:44:02.868Z,99021.40
2022-08-04T17:46:41.252Z,99020.80
2022-08-04T17:49:17.668Z,99016.60
2022-08-04T17:52:05.580Z,99017.40
2022-08-04T17:54:40.547Z,99015.00
2022-08-04T17:57:22.123Z,99012.60
2022-08-04T17:59:58.798Z,99011.20
2022-08-04T18:02:32.850Z,99011.00
2022-08-04T18:05:11.678Z,99015.80
2022-08-04T18:08:37.643Z,99018.60
2022-08-04T18:13:29.468Z,99018.40
2022-08-04T18:16:14.503Z,99021.00
2022-08-04T18:19:15.571Z,99029.00
2022-08-04T18:22:00.492Z,99028.40
2022-08-04T18:24:36.024Z,99029.80
2022-08-04T18:27:26.104Z,99035.40
2022-08-04T18:30:33.933Z,99034.40
2022-08-04T18:33:16.683Z,99039.40
2022-08-04T18:36:35.339Z,99041.00
2022-08-04T18:38:24.397Z,99039.20
2022-08-04T18:40:54.571Z,99037.40
2022-08-04T18:43:28.677Z,99041.20
2022-08-04T18:45:59.543Z,99040.60
2022-08-04T18:48:35.928Z,99044.80
2022-08-04T18:51:10.747Z,99047.20
2022-08-04T18:53:44.808Z,99047.60
2022-08-04T18:56:29.685Z,99047.60
2022-08-04T18:59:10.457Z,99057.40
2022-08-04T19:02:13.016Z,99057.00
2022-08-04T19:04:32.228Z,99055.80
2022-08-04T19:07:28.932Z,99059.20
2022-08-04T19:09:52.104Z,99063.40
2022-08-04T19:12:26.980Z,99061.20
2022-08-04T19:15:08.020Z,99058.00
2022-08-04T19:17:53.411Z,99059.00
2022-08-04T19:20:27.610Z,99060.00
2022-08-04T19:24:28.761Z,99064.00
2022-08-04T19:26:02.140Z,99064.80
2022-08-04T19:28:35.972Z,99066.20
2022-08-04T19:31:08.927Z,99064.40
2022-08-04T19:33:59.106Z,99067.20
2022-08-04T19:36:29.653Z,99065.80
2022-08-04T19:39:03.900Z,99068.00
2022-08-04T19:42:04.572Z,99067.80
2022-08-04T19:44:25.080Z,99070.60
2022-08-04T19:47:00.557Z,99071.80
2022-08-04T19:50:03.814Z,99073.80
2022-08-04T19:52:34.016Z,99071.00
2022-08-04T19:55:09.905Z,99070.60
2022-08-04T19:57:53.484Z,99074.60
2022-08-04T20:00:33.146Z,99076.60
2022-08-04T20:03:03.566Z,99075.20
2022-08-04T20:05:53.311Z,99071.00
2022-08-04T20:08:31.775Z,99071.80
2022-08-04T20:11:00.153Z,99073.80
2022-08-04T20:13:37.073Z,99076.20
2022-08-04T20:16:29.557Z,99076.80
2022-08-04T20:19:00.913Z,99081.00
2022-08-04T20:21:54.036Z,99078.00
2022-08-04T20:24:39.288Z,99076.00
2022-08-04T20:27:22.068Z,99077.40
2022-08-04T20:29:52.394Z,99078.00
2022-08-04T20:32:26.354Z,99078.20
2022-08-04T20:34:56.377Z,99073.00
2022-08-04T20:37:55.552Z,99077.80
2022-08-04T20:40:15.039Z,99077.60
2022-08-04T20:42:44.870Z,99075.20
2022-08-04T20:51:08.974Z,99077.40
2022-08-04T20:53:52.805Z,99074.00
2022-08-04T20:56:30.732Z,99075.40
2022-08-04T20:59:00.430Z,99074.60
2022-08-04T21:01:30.066Z,99073.40
2022-08-04T21:04:27.888Z,99075.00
2022-08-04T21:07:01.847Z,99078.40
2022-08-04T21:12:27.672Z,99072.20
2022-08-04T21:15:00.035Z,99076.80
2022-08-04T21:17:59.454Z,99073.40
2022-08-04T21:20:27.378Z,99068.60
2022-08-04T21:22:59.624Z,99066.00
2022-08-04T21:25:30.004Z,99068.80
2022-08-04T21:27:58.893Z,99070.40
2022-08-04T21:30:29.673Z,99072.40
2022-08-04T21:32:57.247Z,99073.80
2022-08-04T21:35:37.098Z,99075.80
2022-08-04T21:38:17.282Z,99071.60
2022-08-04T21:40:58.494Z,99076.20
2022-08-04T21:43:42.422Z,99078.20
2022-08-04T21:46:11.300Z,99078.80
2022-08-04T21:48:42.523Z,99075.80
2022-08-04T21:51:59.735Z,99067.40
2022-08-04T21:54:26.513Z,99070.00
2022-08-04T21:56:54.181Z,99066.80
2022-08-04T21:59:30.567Z,99064.40
2022-08-04T22:04:35.639Z,99059.00
2022-08-04T22:07:05.288Z,99065.00
2022-08-04T22:09:41.040Z,99057.80
2022-08-04T22:12:11.677Z,99066.60
2022-08-04T22:14:40.830Z,99064.20
2022-08-04T22:17:13.578Z,99065.00
2022-08-04T22:19:55.025Z,99064.80
2022-08-04T22:22:27.213Z,99058.40
2022-08-04T22:28:02.701Z,99055.60
2022-08-04T22:30:37.058Z,99060.00
2022-08-04T22:33:08.778Z,99058.00
2022-08-04T22:35:48.906Z,99058.80
2022-08-04T22:38:25.429Z,99056.80
2022-08-04T22:41:05.319Z,99063.20
2022-08-04T22:43:34.796Z,99063.80
2022-08-04T22:46:20.227Z,99059.80
2022-08-04T22:48:50.554Z,99058.40
2022-08-04T22:51:19.660Z,99053.60
2022-08-04T22:53:48.750Z,99057.60
2022-08-04T22:56:37.176Z,99054.20
2022-08-04T22:59:11.046Z,99052.80
2022-08-04T23:02:00.386Z,99052.20
2022-08-04T23:04:32.629Z,99047.60
2022-08-04T23:07:09.169Z,99042.80
2022-08-04T23:09:49.874Z,99039.20
2022-08-04T23:12:26.052Z,99038.40
2022-08-04T23:14:59.288Z,99037.00
2022-08-04T23:17:28.567Z,99034.40
2022-08-04T23:19:59.667Z,99031.60
2022-08-04T23:22:41.627Z,99028.00
2022-08-04T23:25:15.102Z,99026.60
2022-08-04T23:27:51.522Z,99025.40
2022-08-04T23:30:29.920Z,99017.40
2022-08-04T23:32:58.518Z,99013.00
2022-08-04T23:35:26.296Z,99009.20
2022-08-04T23:37:56.884Z,99008.40
2022-08-04T23:40:33.509Z,99007.00
2022-08-04T23:43:17.134Z,99005.00
2022-08-04T23:46:04.228Z,99002.60
2022-08-04T23:48:38.972Z,99000.40
2022-08-04T23:51:14.347Z,99007.60
2022-08-04T23:54:02.578Z,99008.40
2022-08-04T23:56:35.660Z,99004.60
2022-08-04T23:59:05.743Z,98999.60
